Time;durP1;ratioP1;P1;durP2;ratioP2;P2;SDS_P1;SDS_P2;PMS_P1;PMS_P2;Temp;Humidity;BMP_temperature;BMP_pressure;BME280_temperature;BME280_humidity;BME280_pressure;Samples;Min_cycle;Max_cycle;Signal;HPM_P1;HPM_P2
2022/02/15 00:02:20;;;;;;;1.47;1.10;;;11.10;99.90;;;;;;5092980;28;20204;-61
2022/02/15 00:04:47;;;;;;;1.30;1.00;;;11.00;99.90;;;;;;5092800;28;20200;-61
2022/02/15 00:07:13;;;;;;;0.77;0.70;;;11.00;99.90;;;;;;5093087;28;20211;-61
2022/02/15 00:09:40;;;;;;;1.23;0.80;;;10.90;99.90;;;;;;5092931;28;20200;-61
2022/02/15 00:12:08;;;;;;;2.50;2.10;;;10.70;99.90;;;;;;5092744;28;20229;-61
2022/02/15 00:14:34;;;;;;;2.90;2.20;;;10.80;99.90;;;;;;5093151;28;20306;-60
2022/02/15 00:17:03;;;;;;;2.40;1.97;;;10.80;99.90;;;;;;5092777;28;20228;-61
2022/02/15 00:19:30;;;;;;;1.80;1.60;;;10.90;99.90;;;;;;5092818;28;20208;-60
2022/02/15 00:21:56;;;;;;;1.97;1.30;;;10.90;99.90;;;;;;5092767;28;20200;-60
2022/02/15 00:24:23;;;;;;;1.77;0.90;;;10.90;99.90;;;;;;5092235;28;20204;-58
2022/02/15 00:26:50;;;;;;;3.13;2.20;;;10.80;99.90;;;;;;5092413;28;20711;-59
2022/02/15 00:29:16;;;;;;;3.10;1.87;;;10.80;99.90;;;;;;5092856;28;20204;-59
2022/02/15 00:31:43;;;;;;;1.03;0.80;;;10.80;99.90;;;;;;5092109;28;20643;-58
2022/02/15 00:34:11;;;;;;;1.63;1.00;;;10.70;99.90;;;;;;5092263;28;20200;-60
2022/02/15 00:36:38;;;;;;;1.00;0.90;;;10.60;99.90;;;;;;5092180;28;20711;-59
2022/02/15 00:39:05;;;;;;;0.83;0.60;;;10.60;99.90;;;;;;5092797;28;20249;-59
2022/02/15 00:41:32;;;;;;;1.03;0.67;;;10.60;99.90;;;;;;5092469;28;20448;-58
2022/02/15 00:43:58;;;;;;;1.07;0.50;;;10.60;99.90;;;;;;5091934;28;20610;-58
2022/02/15 00:46:25;;;;;;;0.33;0.33;;;10.50;99.90;;;;;;5092327;28;20580;-58
2022/02/15 00:48:52;;;;;;;0.63;0.60;;;10.50;99.90;;;;;;5092587;28;20620;-58
2022/02/15 00:51:20;;;;;;;1.00;0.60;;;10.50;99.90;;;;;;5092399;28;20204;-59
2022/02/15 00:53:47;;;;;;;0.40;0.30;;;10.40;99.90;;;;;;5092068;28;20695;-59
2022/02/15 00:56:13;;;;;;;0.80;0.50;;;10.40;99.90;;;;;;5092322;28;20369;-59
2022/02/15 00:58:40;;;;;;;1.20;0.80;;;10.40;99.90;;;;;;5092158;28;20224;-59
2022/02/15 01:01:07;;;;;;;0.70;0.47;;;10.40;99.90;;;;;;5092058;28;20567;-59
2022/02/15 01:03:33;;;;;;;1.70;0.50;;;10.40;99.90;;;;;;5091865;28;20287;-59
2022/02/15 01:06:00;;;;;;;1.00;0.80;;;10.40;99.90;;;;;;5091687;28;20236;-58
2022/02/15 01:08:28;;;;;;;1.07;0.60;;;10.30;99.90;;;;;;5091826;28;20686;-59
2022/02/15 01:10:55;;;;;;;0.67;0.50;;;10.40;99.90;;;;;;5092233;28;20212;-59
2022/02/15 01:13:22;;;;;;;0.93;0.50;;;10.40;99.90;;;;;;5091541;28;20630;-59
2022/02/15 01:15:49;;;;;;;1.47;0.70;;;10.30;99.90;;;;;;5091763;28;20220;-59
2022/02/15 01:18:16;;;;;;;1.27;0.80;;;10.20;99.90;;;;;;5091724;28;20663;-58
2022/02/15 01:20:43;;;;;;;0.80;0.70;;;10.10;99.90;;;;;;5091719;28;20219;-59
2022/02/15 01:23:09;;;;;;;1.50;0.80;;;10.00;99.90;;;;;;5091736;28;20204;-59
2022/02/15 01:25:37;;;;;;;1.40;0.90;;;9.90;99.90;;;;;;5091758;28;20224;-59
2022/02/15 01:28:04;;;;;;;0.90;0.70;;;9.90;99.90;;;;;;5092049;28;20212;-58
2022/02/15 01:30:31;;;;;;;1.23;0.97;;;9.80;99.90;;;;;;5091685;28;20230;-60
2022/02/15 01:32:58;;;;;;;1.13;0.90;;;9.70;99.90;;;;;;5091658;28;20231;-61
2022/02/15 01:35:25;;;;;;;0.83;0.80;;;9.70;99.90;;;;;;5091649;28;20228;-59
2022/02/15 01:37:51;;;;;;;1.73;1.20;;;9.70;99.90;;;;;;5091824;28;20200;-59
2022/02/15 01:40:18;;;;;;;1.73;1.00;;;9.70;99.90;;;;;;5091756;28;20283;-59
2022/02/15 01:42:46;;;;;;;2.17;1.13;;;9.60;99.90;;;;;;5094819;28;20200;-59
2022/02/15 01:45:15;;;;;;;1.50;1.00;;;9.60;99.90;;;;;;5095642;28;20316;-59
2022/02/15 01:47:42;;;;;;;1.97;1.10;;;9.50;99.90;;;;;;5095515;28;20253;-60
2022/02/15 01:50:09;;;;;;;3.80;1.13;;;9.40;99.90;;;;;;5095743;28;20212;-59
2022/02/15 01:52:36;;;;;;;1.30;0.90;;;9.30;99.90;;;;;;5095347;28;20273;-60
2022/02/15 01:55:04;;;;;;;2.07;1.20;;;9.20;99.90;;;;;;5095460;28;20704;-59
2022/02/15 01:57:32;;;;;;;2.20;1.30;;;9.10;99.90;;;;;;5095668;28;20208;-60
2022/02/15 02:00:00;;;;;;;1.67;1.13;;;9.00;99.90;;;;;;5095649;28;20211;-60
2022/02/15 02:02:29;;;;;;;1.63;1.00;;;8.90;99.90;;;;;;5095288;28;20223;-60
2022/02/15 02:07:40;;;;;;;1.30;1.00;;;8.90;99.90;;;;;;5095559;28;20269;-60
2022/02/15 02:10:07;;;;;;;1.67;1.20;;;8.80;99.90;;;;;;5095245;28;20208;-60
2022/02/15 02:12:35;;;;;;;1.13;1.03;;;8.90;99.90;;;;;;5094710;28;20704;-61
2022/02/15 02:15:06;;;;;;;1.80;1.20;;;8.90;99.90;;;;;;5095245;28;20246;-59
2022/02/15 02:17:33;;;;;;;1.67;1.27;;;8.80;99.90;;;;;;5095372;28;20231;-60
2022/02/15 02:20:00;;;;;;;1.63;1.23;;;8.80;99.90;;;;;;5094912;28;20582;-61
2022/02/15 02:22:29;;;;;;;1.17;1.07;;;8.70;99.90;;;;;;5094795;28;20659;-60
2022/02/15 02:24:58;;;;;;;1.50;1.10;;;8.50;99.90;;;;;;5094852;28;20200;-59
2022/02/15 02:27:26;;;;;;;1.40;1.10;;;8.50;99.90;;;;;;5094916;28;20212;-60
2022/02/15 02:29:54;;;;;;;1.67;1.33;;;8.50;99.90;;;;;;5095250;28;20307;-60
2022/02/15 02:32:21;;;;;;;1.63;1.17;;;8.50;99.90;;;;;;5094749;28;20648;-60
2022/02/15 02:34:48;;;;;;;1.67;1.20;;;8.40;99.90;;;;;;5094860;28;20200;-59
2022/02/15 02:37:15;;;;;;;1.40;1.10;;;8.40;99.90;;;;;;5095240;28;20758;-60
2022/02/15 02:39:44;;;;;;;2.67;1.20;;;8.40;99.90;;;;;;5094522;28;20204;-60
2022/02/15 02:42:11;;;;;;;2.77;1.43;;;8.40;99.90;;;;;;5094909;28;20204;-60
2022/02/15 02:44:38;;;;;;;1.67;1.20;;;8.40;99.90;;;;;;5094494;28;20209;-60
2022/02/15 02:47:06;;;;;;;1.20;0.93;;;8.40;99.90;;;;;;5094593;28;20204;-59
2022/02/15 02:49:32;;;;;;;1.93;1.10;;;8.40;99.90;;;;;;5094457;28;20667;-60
2022/02/15 02:52:00;;;;;;;1.00;0.80;;;8.40;99.90;;;;;;5094488;28;20261;-60
2022/02/15 02:54:27;;;;;;;3.37;1.10;;;8.40;99.90;;;;;;5093604;28;20237;-60
2022/02/15 02:56:55;;;;;;;2.77;1.40;;;8.30;99.90;;;;;;5094535;28;20224;-60
2022/02/15 02:59:22;;;;;;;1.80;1.20;;;8.30;99.90;;;;;;5094463;28;20266;-59
2022/02/15 03:01:49;;;;;;;1.90;1.10;;;8.40;99.90;;;;;;5094520;28;20393;-58
2022/02/15 03:04:16;;;;;;;1.83;0.80;;;8.50;99.90;;;;;;5094064;28;20690;-60
2022/02/15 03:06:43;;;;;;;1.73;1.00;;;8.50;99.90;;;;;;5107739;22;20607;-63
2022/02/15 03:09:10;;;;;;;2.00;1.23;;;8.60;99.90;;;;;;5078890;28;20204;-63
2022/02/15 03:11:36;;;;;;;2.27;0.97;;;8.70;99.90;;;;;;5074127;28;20621;-63
2022/02/15 03:14:05;;;;;;;2.40;1.07;;;8.80;99.90;;;;;;5073503;28;20229;-63
2022/02/15 03:16:32;;;;;;;1.40;1.00;;;8.90;99.90;;;;;;5074185;28;20229;-63
2022/02/15 03:18:59;;;;;;;1.87;1.00;;;9.00;99.90;;;;;;5073991;28;20211;-63
2022/02/15 03:21:26;;;;;;;1.37;1.00;;;9.10;99.90;;;;;;5073966;28;20281;-64
2022/02/15 03:23:54;;;;;;;1.80;1.10;;;9.10;99.90;;;;;;5073867;28;20544;-63
2022/02/15 03:26:20;;;;;;;1.10;0.90;;;9.20;99.90;;;;;;5073471;28;20232;-63
2022/02/15 03:28:47;;;;;;;1.47;1.20;;;9.30;99.90;;;;;;5073694;28;20215;-62
2022/02/15 03:31:15;;;;;;;1.27;0.97;;;9.30;99.90;;;;;;5073482;28;20205;-62
2022/02/15 03:33:42;;;;;;;1.20;1.00;;;9.30;99.90;;;;;;5073361;28;20240;-62
2022/02/15 03:36:09;;;;;;;1.90;1.10;;;9.40;99.90;;;;;;5073274;28;20224;-62
2022/02/15 03:38:36;;;;;;;3.03;1.47;;;9.40;99.90;;;;;;5073544;28;20201;-63
2022/02/15 03:43:47;;;;;;;1.97;1.10;;;9.50;99.90;;;;;;5073058;28;20195;-62
2022/02/15 03:46:15;;;;;;;2.27;1.23;;;9.50;99.90;;;;;;5073050;28;20221;-62
2022/02/15 03:48:41;;;;;;;2.07;1.17;;;9.50;99.90;;;;;;5073018;28;20546;-61
2022/02/15 03:51:08;;;;;;;1.63;1.00;;;9.50;99.90;;;;;;5073044;28;20680;-61
2022/02/15 03:53:35;;;;;;;7.03;4.50;;;9.50;99.90;;;;;;5073057;28;20283;-61
2022/02/15 03:56:04;;;;;;;7.40;5.40;;;9.50;99.90;;;;;;5072912;28;20652;-61
2022/02/15 03:58:30;;;;;;;3.33;1.73;;;9.60;99.90;;;;;;5073160;28;20205;-61
2022/02/15 04:00:57;;;;;;;3.10;1.30;;;9.70;99.90;;;;;;5072814;28;20212;-61
2022/02/15 04:03:25;;;;;;;2.70;1.20;;;9.80;99.90;;;;;;5072553;28;20197;-61
2022/02/15 04:05:53;;;;;;;2.93;0.90;;;9.80;99.90;;;;;;5071954;28;20228;-63
2022/02/15 04:08:21;;;;;;;3.77;0.97;;;9.80;99.90;;;;;;5072946;28;20255;-63
2022/02/15 04:10:48;;;;;;;3.23;1.00;;;9.80;99.90;;;;;;5072819;28;20669;-62
2022/02/15 04:13:15;;;;;;;3.13;1.10;;;9.80;99.90;;;;;;5072535;28;20723;-62
2022/02/15 04:15:42;;;;;;;3.13;1.03;;;9.80;99.90;;;;;;5072667;28;20230;-62
2022/02/15 04:18:08;;;;;;;2.10;1.00;;;9.90;99.90;;;;;;5073072;28;20255;-62
2022/02/15 04:20:37;;;;;;;2.63;1.20;;;9.90;99.90;;;;;;5072855;28;20240;-62
2022/02/15 04:23:04;;;;;;;3.20;1.10;;;9.90;99.90;;;;;;5072355;28;20258;-62
2022/02/15 04:25:30;;;;;;;3.13;1.17;;;9.90;99.90;;;;;;5072471;28;20225;-62
2022/02/15 04:27:57;;;;;;;2.90;1.20;;;9.80;99.90;;;;;;5072324;28;20216;-63
2022/02/15 04:30:24;;;;;;;2.80;1.20;;;9.80;99.90;;;;;;5072748;28;20209;-63
2022/02/15 04:32:50;;;;;;;5.57;1.10;;;9.70;99.90;;;;;;5072123;28;20201;-63
2022/02/15 04:35:17;;;;;;;3.07;1.10;;;9.70;99.90;;;;;;5072220;28;20254;-62
2022/02/15 04:37:45;;;;;;;2.07;1.00;;;9.90;99.90;;;;;;5072142;28;20619;-63
2022/02/15 04:40:12;;;;;;;1.97;1.20;;;9.90;99.90;;;;;;5072150;28;20673;-63
2022/02/15 04:42:39;;;;;;;3.30;1.10;;;10.00;99.90;;;;;;5071897;28;20212;-61
2022/02/15 04:45:06;;;;;;;3.03;1.20;;;10.10;99.90;;;;;;5072113;28;20245;-61
2022/02/15 04:47:33;;;;;;;2.37;1.27;;;10.00;99.90;;;;;;5072462;28;20201;-63
2022/02/15 04:49:59;;;;;;;2.37;1.10;;;10.00;99.90;;;;;;5072380;28;20342;-61
2022/02/15 04:52:26;;;;;;;3.87;1.30;;;10.00;99.90;;;;;;5072193;28;20201;-61
2022/02/15 04:54:54;;;;;;;2.40;1.07;;;10.00;99.90;;;;;;5071971;28;20228;-61
2022/02/15 04:57:21;;;;;;;3.20;1.50;;;10.00;99.90;;;;;;5071842;28;20254;-61
2022/02/15 04:59:47;;;;;;;1.20;1.00;;;10.00;99.90;;;;;;5072180;28;20817;-62
2022/02/15 05:02:14;;;;;;;2.47;1.17;;;10.00;99.90;;;;;;5072129;28;20209;-62
2022/02/15 05:04:49;;;;;;;2.97;1.10;;;10.00;99.90;;;;;;5072147;28;20203;-62
2022/02/15 05:07:17;;;;;;;4.63;1.63;;;10.00;99.90;;;;;;5072445;28;20235;-62
2022/02/15 05:09:44;;;;;;;1.73;1.63;;;9.90;99.90;;;;;;5072888;28;20209;-61
2022/02/15 05:12:13;;;;;;;2.83;1.57;;;9.90;99.90;;;;;;5073362;28;20208;-62
2022/02/15 05:14:40;;;;;;;2.57;1.27;;;9.90;99.90;;;;;;5073034;28;20220;-62
2022/02/15 05:17:07;;;;;;;4.73;1.60;;;9.90;99.90;;;;;;5072153;28;20228;-63
2022/02/15 05:19:34;;;;;;;2.10;1.43;;;9.90;99.90;;;;;;5072037;28;20205;-62
2022/02/15 05:22:01;;;;;;;3.57;1.50;;;9.90;99.90;;;;;;5071898;28;20209;-62
2022/02/15 05:24:28;;;;;;;4.40;1.43;;;9.90;99.90;;;;;;5071585;28;20645;-62
2022/02/15 05:26:55;;;;;;;2.80;1.23;;;9.90;99.90;;;;;;5071890;28;20221;-62
2022/02/15 05:29:23;;;;;;;2.17;1.10;;;9.90;99.90;;;;;;5071788;28;20623;-62
2022/02/15 05:31:50;;;;;;;2.83;1.33;;;9.80;99.90;;;;;;5071958;28;20205;-62
2022/02/15 05:34:17;;;;;;;3.73;1.43;;;9.90;99.90;;;;;;5071405;28;20229;-62
2022/02/15 05:36:44;;;;;;;3.63;1.80;;;9.80;99.90;;;;;;5071440;28;20224;-62
2022/02/15 05:39:11;;;;;;;4.67;1.67;;;9.80;99.90;;;;;;5071443;28;20220;-62
2022/02/15 05:41:37;;;;;;;3.73;1.70;;;9.80;99.90;;;;;;5071524;28;20668;-62
2022/02/15 05:44:04;;;;;;;3.43;1.80;;;9.80;99.90;;;;;;5071287;28;20204;-62
2022/02/15 05:46:33;;;;;;;3.30;1.40;;;9.80;99.90;;;;;;5071394;28;20225;-62
2022/02/15 05:48:59;;;;;;;2.57;1.67;;;9.80;99.90;;;;;;5071581;28;20209;-62
2022/02/15 05:51:26;;;;;;;2.47;1.57;;;9.80;99.90;;;;;;5071374;28;20213;-62
2022/02/15 05:53:53;;;;;;;2.33;1.40;;;9.80;99.90;;;;;;5071309;28;20615;-62
2022/02/15 05:56:19;;;;;;;3.03;2.00;;;9.80;99.90;;;;;;5071428;28;20311;-62
2022/02/15 05:58:46;;;;;;;2.57;1.57;;;9.80;99.90;;;;;;5071779;28;20292;-62
2022/02/15 06:01:13;;;;;;;3.73;1.70;;;9.80;99.90;;;;;;5071414;28;20217;-62
2022/02/15 06:06:25;;;;;;;5.93;2.17;;;9.80;99.90;;;;;;5071199;28;20724;-63
2022/02/15 06:08:52;;;;;;;3.90;2.20;;;9.90;99.90;;;;;;5071545;28;20209;-63
2022/02/15 06:11:19;;;;;;;3.77;1.77;;;9.90;99.90;;;;;;5071407;28;20299;-62
2022/02/15 06:13:45;;;;;;;3.27;1.87;;;9.90;99.90;;;;;;5070984;28;20232;-62
2022/02/15 06:16:12;;;;;;;7.47;4.17;;;9.90;99.90;;;;;;5071080;28;20260;-62
2022/02/15 06:18:40;;;;;;;5.27;2.40;;;9.90;99.90;;;;;;5071286;28;20209;-62
2022/02/15 06:21:07;;;;;;;3.47;2.10;;;9.90;99.90;;;;;;5071303;28;20238;-62
2022/02/15 06:23:33;;;;;;;3.37;2.20;;;9.90;99.90;;;;;;5071084;28;20213;-62
2022/02/15 06:26:00;;;;;;;2.87;2.30;;;9.90;99.90;;;;;;5071252;28;20278;-62
2022/02/15 06:28:27;;;;;;;3.27;2.10;;;9.90;99.90;;;;;;5072222;28;20584;-62
2022/02/15 06:30:56;;;;;;;4.23;2.47;;;9.90;99.90;;;;;;5074590;28;20290;-62
2022/02/15 06:33:23;;;;;;;3.20;2.27;;;10.00;99.90;;;;;;5074091;28;20664;-62
2022/02/15 06:35:51;;;;;;;3.53;2.80;;;10.00;99.90;;;;;;5074356;28;20708;-62
2022/02/15 06:38:18;;;;;;;3.30;2.10;;;10.10;99.90;;;;;;5074344;28;20680;-64
2022/02/15 06:40:44;;;;;;;5.23;2.70;;;10.10;99.90;;;;;;5074426;28;20205;-62
2022/02/15 06:43:11;;;;;;;3.87;2.20;;;10.10;99.90;;;;;;5074224;28;20212;-63
2022/02/15 06:45:38;;;;;;;5.53;2.23;;;10.20;99.90;;;;;;5074176;28;20708;-62
2022/02/15 06:48:05;;;;;;;3.30;2.07;;;10.20;99.90;;;;;;5074389;28;20292;-63
2022/02/15 06:50:32;;;;;;;3.00;1.40;;;10.20;99.90;;;;;;5074404;28;20205;-66
2022/02/15 06:53:00;;;;;;;2.73;1.90;;;10.20;99.90;;;;;;5074171;28;20266;-61
2022/02/15 06:55:27;;;;;;;3.20;1.70;;;10.30;99.90;;;;;;5073979;28;20236;-63
2022/02/15 06:57:53;;;;;;;2.20;1.63;;;10.30;99.90;;;;;;5074170;28;20687;-62
2022/02/15 07:00:20;;;;;;;4.83;2.50;;;10.30;99.90;;;;;;5073926;28;20628;-64
2022/02/15 07:02:47;;;;;;;5.40;2.20;;;10.30;99.90;;;;;;5073821;28;20286;-62
2022/02/15 07:05:14;;;;;;;2.87;2.00;;;10.20;99.90;;;;;;5073892;28;20239;-61
2022/02/15 07:07:40;;;;;;;4.20;2.10;;;10.30;99.90;;;;;;5074161;28;20216;-61
2022/02/15 07:10:10;;;;;;;3.20;1.87;;;10.30;99.90;;;;;;5074048;28;20201;-62
2022/02/15 07:12:37;;;;;;;5.57;1.80;;;10.40;99.90;;;;;;5073955;28;20252;-62
2022/02/15 07:15:04;;;;;;;2.63;1.67;;;10.40;99.90;;;;;;5073698;28;20723;-61
2022/02/15 07:17:35;;;;;;;6.27;3.30;;;10.30;99.90;;;;;;5073747;28;20209;-62
2022/02/15 07:20:02;;;;;;;8.40;4.47;;;10.30;99.90;;;;;;5073905;28;20209;-62
2022/02/15 07:22:29;;;;;;;2.10;1.60;;;10.40;99.90;;;;;;5071128;28;20212;-64
2022/02/15 07:24:56;;;;;;;2.30;1.57;;;10.50;99.90;;;;;;5073490;28;20641;-65
2022/02/15 07:27:26;;;;;;;2.17;1.57;;;10.50;99.90;;;;;;5073430;28;20275;-67
2022/02/15 07:29:53;;;;;;;2.90;1.53;;;10.50;99.90;;;;;;5073992;28;20205;-68
2022/02/15 07:32:24;;;;;;;4.73;1.50;;;10.50;99.90;;;;;;5079569;28;20253;-69
2022/02/15 07:34:50;;;;;;;5.97;3.10;;;10.60;99.90;;;;;;5093674;28;20231;-66
2022/02/15 07:37:17;;;;;;;5.40;1.50;;;10.50;99.90;;;;;;5093612;28;20228;-66
2022/02/15 07:39:44;;;;;;;2.87;1.40;;;10.50;99.90;;;;;;5093478;28;20389;-69
2022/02/15 07:42:11;;;;;;;3.10;1.10;;;10.50;99.90;;;;;;5093887;28;20219;-66
2022/02/15 07:44:39;;;;;;;3.00;1.33;;;10.40;99.90;;;;;;5093548;28;20575;-62
2022/02/15 07:47:06;;;;;;;2.63;1.97;;;10.50;99.90;;;;;;5093164;28;20269;-62
2022/02/15 07:49:33;;;;;;;3.37;1.70;;;10.50;99.90;;;;;;5093385;28;20282;-62
2022/02/15 07:52:00;;;;;;;3.40;1.20;;;10.60;99.90;;;;;;5093130;28;20200;-62
2022/02/15 07:54:27;;;;;;;1.50;1.00;;;10.60;99.90;;;;;;5092591;28;20220;-62
2022/02/15 07:56:54;;;;;;;1.73;1.40;;;10.70;99.90;;;;;;5093289;28;20231;-62
2022/02/15 07:59:21;;;;;;;2.07;1.30;;;10.70;99.90;;;;;;5093159;28;20208;-62
2022/02/15 08:01:49;;;;;;;2.50;1.40;;;10.70;99.90;;;;;;5093172;28;20208;-67
2022/02/15 08:04:16;;;;;;;1.70;1.03;;;10.70;99.90;;;;;;5092767;28;20614;-63
2022/02/15 08:06:43;;;;;;;2.43;1.23;;;10.80;99.90;;;;;;5092735;28;20289;-63
2022/02/15 08:09:14;;;;;;;3.13;1.63;;;10.90;99.90;;;;;;5093087;28;20210;-65
2022/02/15 08:11:41;;;;;;;4.67;1.20;;;10.80;99.90;;;;;;5093375;28;20254;-66
2022/02/15 08:14:08;;;;;;;2.33;1.10;;;10.90;99.90;;;;;;5093763;28;20212;-63
2022/02/15 08:16:35;;;;;;;3.43;1.03;;;10.80;99.90;;;;;;5093270;28;20251;-59
2022/02/15 08:19:03;;;;;;;4.43;1.53;;;10.80;99.90;;;;;;5092850;28;20204;-59
2022/02/15 08:21:30;;;;;;;2.27;1.23;;;10.80;99.90;;;;;;5092631;28;20211;-60
2022/02/15 08:23:57;;;;;;;1.70;0.90;;;10.90;99.90;;;;;;5092842;28;20207;-60
2022/02/15 08:26:24;;;;;;;2.07;1.10;;;10.90;99.90;;;;;;5092611;28;20305;-62
2022/02/15 08:28:51;;;;;;;5.40;2.73;;;11.00;99.90;;;;;;5093130;28;20660;-59
2022/02/15 08:31:18;;;;;;;2.37;1.23;;;11.00;99.90;;;;;;5093784;28;20204;-62
2022/02/15 08:33:45;;;;;;;1.40;0.93;;;11.10;99.90;;;;;;5093494;28;20238;-64
2022/02/15 08:36:13;;;;;;;1.53;1.07;;;11.10;99.90;;;;;;5093016;28;20281;-63
2022/02/15 08:38:40;;;;;;;1.33;0.93;;;11.20;99.90;;;;;;5094304;28;20204;-63
2022/02/15 08:41:07;;;;;;;11.53;7.47;;;11.30;99.90;;;;;;5093410;28;20240;-59
2022/02/15 08:43:33;;;;;;;4.90;1.80;;;11.30;99.90;;;;;;5092431;28;20211;-59
2022/02/15 08:46:00;;;;;;;3.17;2.00;;;11.30;99.90;;;;;;5092307;28;20216;-59
2022/02/15 08:48:27;;;;;;;1.70;1.00;;;11.40;99.90;;;;;;5092220;28;20207;-59
2022/02/15 08:50:54;;;;;;;1.77;0.87;;;11.40;99.90;;;;;;5091713;28;20200;-59
2022/02/15 08:53:22;;;;;;;3.40;1.27;;;11.50;99.90;;;;;;5091876;28;20211;-59
2022/02/15 08:55:49;;;;;;;1.50;0.90;;;11.60;99.90;;;;;;5092399;28;20236;-59
2022/02/15 08:58:15;;;;;;;1.87;0.93;;;11.60;99.90;;;;;;5092420;28;20257;-59
2022/02/15 09:00:42;;;;;;;4.33;1.27;;;11.60;99.90;;;;;;5091737;28;20265;-59
2022/02/15 09:03:09;;;;;;;5.00;1.20;;;11.70;99.90;;;;;;5091740;28;20281;-59
2022/02/15 09:05:35;;;;;;;2.07;1.23;;;11.70;99.90;;;;;;5114283;22;20231;-56
2022/02/15 09:08:02;;;;;;;1.47;1.03;;;11.70;99.90;;;;;;5079955;28;20702;-56
2022/02/15 09:10:30;;;;;;;1.77;1.00;;;11.70;99.90;;;;;;5089316;28;20215;-56
2022/02/15 09:12:57;;;;;;;3.07;1.20;;;11.60;99.90;;;;;;5091698;28;20215;-55
2022/02/15 09:15:24;;;;;;;1.60;1.30;;;11.60;99.90;;;;;;5091685;28;20220;-56
2022/02/15 09:17:50;;;;;;;1.70;1.57;;;11.50;99.90;;;;;;5071714;28;20200;-55
2022/02/15 09:20:17;;;;;;;1.40;1.30;;;11.40;99.90;;;;;;5071763;28;20672;-58
2022/02/15 09:22:44;;;;;;;1.43;1.30;;;11.30;99.90;;;;;;5071544;28;20672;-55
2022/02/15 09:25:11;;;;;;;1.83;1.33;;;11.30;99.90;;;;;;5071317;28;20550;-55
2022/02/15 09:27:39;;;;;;;2.57;1.70;;;11.20;99.90;;;;;;5071578;28;20233;-55
2022/02/15 09:30:06;;;;;;;1.63;1.30;;;11.20;99.90;;;;;;5071510;28;20220;-56
2022/02/15 09:32:33;;;;;;;2.30;1.70;;;11.20;99.90;;;;;;5069769;28;20209;-60
2022/02/15 09:35:00;;;;;;;2.40;1.37;;;11.20;99.90;;;;;;5051267;28;20663;-56
2022/02/15 09:37:26;;;;;;;3.00;1.80;;;11.30;99.90;;;;;;5051498;28;20229;-60
2022/02/15 09:39:55;;;;;;;1.63;1.47;;;11.30;99.90;;;;;;5051561;28;20574;-56
2022/02/15 09:42:22;;;;;;;4.27;2.17;;;11.40;99.90;;;;;;5051523;28;20545;-56
2022/02/15 09:44:50;;;;;;;2.10;1.63;;;11.50;99.90;;;;;;5051117;28;20216;-56
2022/02/15 09:47:24;;;;;;;2.30;1.90;;;11.60;99.90;;;;;;5051361;28;20303;-56
2022/02/15 09:49:51;;;;;;;3.43;1.80;;;11.70;99.90;;;;;;5051620;28;20244;-56
2022/02/15 09:52:20;;;;;;;2.90;2.00;;;11.70;99.90;;;;;;5051244;28;20229;-56
2022/02/15 09:54:50;;;;;;;4.37;2.20;;;11.70;99.90;;;;;;5050986;28;20218;-56
2022/02/15 09:57:17;;;;;;;2.40;2.00;;;11.60;99.90;;;;;;5051128;28;20669;-56
2022/02/15 09:59:45;;;;;;;3.20;2.23;;;11.70;99.90;;;;;;5051613;28;20213;-56
2022/02/15 10:02:18;;;;;;;2.83;2.43;;;11.80;99.90;;;;;;5051486;28;20300;-56
2022/02/15 10:04:45;;;;;;;2.87;2.57;;;11.80;99.90;;;;;;5054032;28;20586;-56
2022/02/15 10:07:14;;;;;;;3.70;2.60;;;11.80;99.90;;;;;;5054711;28;20302;-56
2022/02/15 10:09:42;;;;;;;4.47;2.70;;;11.70;99.90;;;;;;5055074;28;20205;-56
2022/02/15 10:12:10;;;;;;;4.83;2.77;;;11.80;99.90;;;;;;5054523;28;20217;-56
2022/02/15 10:14:38;;;;;;;4.17;2.60;;;11.90;99.90;;;;;;5054738;28;20567;-56
2022/02/15 10:17:07;;;;;;;3.63;2.50;;;12.10;99.90;;;;;;5054785;28;20312;-56
2022/02/15 10:19:36;;;;;;;7.40;2.90;;;12.30;99.90;;;;;;5054931;28;20300;-56
2022/02/15 10:22:04;;;;;;;3.83;2.10;;;12.60;99.90;;;;;;5054743;28;20201;-63
2022/02/15 10:24:34;;;;;;;3.53;2.63;;;12.60;99.90;;;;;;5054469;28;20680;-57
2022/02/15 10:27:02;;;;;;;5.13;2.40;;;12.70;99.90;;;;;;5054701;28;20596;-57
2022/02/15 10:29:32;;;;;;;4.00;2.60;;;12.60;99.90;;;;;;5054883;28;20217;-57
2022/02/15 10:32:00;;;;;;;3.63;2.40;;;12.40;99.90;;;;;;5054878;28;20210;-57
2022/02/15 10:34:28;;;;;;;4.40;2.27;;;12.20;99.90;;;;;;5054334;28;20206;-57
2022/02/15 10:37:00;;;;;;;2.67;2.47;;;12.00;99.90;;;;;;5054395;28;20287;-61
2022/02/15 10:39:42;;;;;;;4.17;2.53;;;11.80;99.90;;;;;;5055058;28;20267;-58
2022/02/15 10:42:10;;;;;;;2.87;2.07;;;11.70;99.90;;;;;;5054392;28;20259;-64
2022/02/15 10:44:51;;;;;;;4.17;2.13;;;11.60;99.90;;;;;;5054153;28;20212;-62
2022/02/15 10:47:18;;;;;;;3.00;1.97;;;11.80;99.90;;;;;;5055385;28;20236;-56
2022/02/15 10:49:45;;;;;;;5.27;2.10;;;11.90;99.90;;;;;;5055234;28;20227;-56
2022/02/15 10:52:14;;;;;;;3.13;2.00;;;12.10;99.90;;;;;;5054448;28;20232;-56
2022/02/15 10:54:41;;;;;;;3.33;1.83;;;12.30;99.90;;;;;;5054221;28;20297;-56
2022/02/15 10:57:11;;;;;;;3.60;2.23;;;12.50;99.90;;;;;;5054056;28;20229;-56
2022/02/15 10:59:41;;;;;;;3.10;1.80;;;12.50;99.90;;;;;;5054284;28;20292;-60
2022/02/15 11:02:11;;;;;;;5.63;3.57;;;12.50;99.90;;;;;;5054656;28;20241;-66
2022/02/15 11:04:41;;;;;;;4.28;1.73;;;12.40;99.90;;;;;;5053378;28;20436;-63
2022/02/15 11:07:11;;;;;;;4.70;1.60;;;12.40;99.90;;;;;;5032174;28;20238;-64
2022/02/15 11:09:46;;;;;;;3.13;2.17;;;12.30;99.90;;;;;;5033598;28;20665;-63
2022/02/15 11:12:22;;;;;;;2.43;1.37;;;12.10;99.90;;;;;;5033803;28;20210;-61
2022/02/15 11:14:55;;;;;;;3.27;1.40;;;11.90;99.90;;;;;;5033217;28;20218;-61
2022/02/15 11:17:26;;;;;;;3.83;1.80;;;11.70;99.90;;;;;;5033640;28;20234;-62
2022/02/15 11:20:01;;;;;;;5.57;1.80;;;11.60;99.90;;;;;;5033413;28;20293;-64
2022/02/15 11:22:28;;;;;;;3.83;1.50;;;11.50;99.90;;;;;;5033868;28;20205;-63
2022/02/15 11:24:57;;;;;;;3.87;1.67;;;11.30;99.90;;;;;;5033259;28;20210;-63
2022/02/15 11:27:24;;;;;;;5.43;1.77;;;11.30;99.90;;;;;;5033423;28;20226;-62
2022/02/15 11:29:54;;;;;;;5.47;2.10;;;11.30;99.90;;;;;;5033464;28;20209;-61
2022/02/15 11:32:34;;;;;;;5.33;2.10;;;11.40;99.90;;;;;;5033325;28;20213;-61
2022/02/15 11:35:09;;;;;;;3.47;1.70;;;11.40;99.90;;;;;;5032885;28;20634;-62
2022/02/15 11:37:37;;;;;;;5.90;1.90;;;11.40;99.90;;;;;;5033297;28;20320;-64
2022/02/15 11:40:08;;;;;;;3.13;1.60;;;11.40;99.90;;;;;;5033379;28;20213;-64
2022/02/15 11:42:43;;;;;;;2.80;1.83;;;11.40;99.90;;;;;;5033167;28;20567;-65
2022/02/15 11:45:18;;;;;;;2.23;1.50;;;11.60;99.90;;;;;;5033086;28;20728;-63
2022/02/15 11:47:46;;;;;;;3.20;1.80;;;11.70;99.90;;;;;;5032926;28;20312;-64
2022/02/15 11:50:15;;;;;;;7.60;4.17;;;11.80;99.90;;;;;;5033373;28;20244;-63
2022/02/15 11:52:43;;;;;;;6.00;1.80;;;11.90;99.90;;;;;;5033018;28;20293;-65
2022/02/15 11:55:16;;;;;;;6.97;1.80;;;12.00;99.90;;;;;;5032793;28;20237;-62
2022/02/15 11:57:44;;;;;;;3.17;1.67;;;12.10;99.90;;;;;;5032529;28;20265;-63
2022/02/15 12:00:12;;;;;;;16.70;10.10;;;12.20;99.90;;;;;;5032990;28;20214;-64
2022/02/15 12:02:40;;;;;;;4.33;1.77;;;12.20;99.90;;;;;;5033319;28;20297;-60
2022/02/15 12:05:07;;;;;;;2.47;1.40;;;12.30;99.90;;;;;;5032278;28;20214;-62
2022/02/15 12:07:35;;;;;;;3.07;1.27;;;12.40;99.90;;;;;;5032161;28;20238;-62
2022/02/15 12:10:05;;;;;;;3.43;1.40;;;12.40;99.90;;;;;;5032358;28;20210;-63
2022/02/15 12:12:36;;;;;;;3.03;1.30;;;12.30;99.90;;;;;;5032176;28;20321;-64
2022/02/15 12:15:06;;;;;;;2.13;1.10;;;12.40;99.90;;;;;;5032406;28;20267;-62
2022/02/15 12:17:37;;;;;;;2.30;1.10;;;12.40;99.90;;;;;;5032246;28;20245;-63
2022/02/15 12:20:05;;;;;;;2.80;1.87;;;12.50;99.90;;;;;;5032513;28;20569;-64
2022/02/15 12:22:31;;;;;;;5.70;2.47;;;12.60;99.90;;;;;;5032297;28;20207;-64
2022/02/15 12:24:58;;;;;;;4.07;1.40;;;12.60;99.90;;;;;;5032377;28;20209;-64
2022/02/15 12:27:26;;;;;;;3.13;1.57;;;12.70;99.90;;;;;;5031321;28;20218;-62
2022/02/15 12:29:57;;;;;;;1.63;1.27;;;12.80;99.90;;;;;;5032328;28;20242;-64
2022/02/15 12:32:27;;;;;;;3.03;2.00;;;12.90;99.90;;;;;;5047831;28;20212;-63
2022/02/15 12:34:55;;;;;;;1.93;1.30;;;12.90;99.90;;;;;;5052066;28;20627;-62
2022/02/15 12:37:23;;;;;;;11.87;7.60;;;12.80;99.90;;;;;;5051954;28;20241;-62
2022/02/15 12:39:52;;;;;;;14.77;7.10;;;12.80;99.90;;;;;;5051755;28;20473;-62
2022/02/15 12:42:20;;;;;;;4.37;1.70;;;13.00;99.90;;;;;;5052016;28;20213;-63
2022/02/15 12:44:58;;;;;;;4.90;1.93;;;13.30;99.90;;;;;;5051636;28;20668;-63
2022/02/15 12:47:25;;;;;;;5.17;1.53;;;13.60;99.90;;;;;;5051859;28;20232;-63
2022/02/15 12:49:53;;;;;;;5.07;1.60;;;13.40;99.60;;;;;;5051916;28;20251;-63
2022/02/15 12:52:20;;;;;;;2.23;1.63;;;13.20;99.80;;;;;;5051644;28;20297;-65
2022/02/15 12:54:51;;;;;;;2.80;1.20;;;13.30;99.90;;;;;;5051902;28;20201;-61
2022/02/15 12:57:20;;;;;;;1.57;0.90;;;13.20;99.50;;;;;;5051575;28;20233;-61
2022/02/15 12:59:47;;;;;;;1.67;1.10;;;13.30;99.20;;;;;;5051874;28;20201;-61
2022/02/15 13:02:17;;;;;;;2.03;1.20;;;13.40;99.20;;;;;;5052180;28;20205;-61